sensor_id;sensor_type;location;lat;lon;timestamp;temperature;humidity
20700;DHT22;10511;51.232;9.420;2022-12-31T00:01:23;10.40;99.90
20700;DHT22;10511;51.232;9.420;2022-12-31T00:03:50;10.40;99.90
20700;DHT22;10511;51.232;9.420;2022-12-31T00:06:20;10.40;99.90
20700;DHT22;10511;51.232;9.420;2022-12-31T00:08:48;10.50;99.90
20700;DHT22;10511;51.232;9.420;2022-12-31T00:11:17;10.50;99.90
20700;DHT22;10511;51.232;9.420;2022-12-31T00:13:45;10.50;99.90
20700;DHT22;10511;51.232;9.420;2022-12-31T00:16:15;10.60;99.90
20700;DHT22;10511;51.232;9.420;2022-12-31T00:18:43;10.60;99.90
20700;DHT22;10511;51.232;9.420;2022-12-31T00:21:10;10.60;99.90
20700;DHT22;10511;51.232;9.420;2022-12-31T00:23:37;10.60;99.90
20700;DHT22;10511;51.232;9.420;2022-12-31T00:26:07;10.70;99.90
20700;DHT22;10511;51.232;9.420;2022-12-31T00:28:36;10.70;99.90
20700;DHT22;10511;51.232;9.420;2022-12-31T00:31:07;10.70;99.90
20700;DHT22;10511;51.232;9.420;2022-12-31T00:33:34;10.80;99.90
20700;DHT22;10511;51.232;9.420;2022-12-31T00:36:06;10.80;99.90
20700;DHT22;10511;51.232;9.420;2022-12-31T00:38:34;10.80;99.90
20700;DHT22;10511;51.232;9.420;2022-12-31T00:41:02;10.80;99.90
20700;DHT22;10511;51.232;9.420;2022-12-31T00:43:29;10.90;99.90
20700;DHT22;10511;51.232;9.420;2022-12-31T00:45:58;11.00;99.90
20700;DHT22;10511;51.232;9.420;2022-12-31T00:48:25;11.00;99.90
20700;DHT22;10511;51.232;9.420;2022-12-31T00:50:54;11.00;99.90
20700;DHT22;10511;51.232;9.420;2022-12-31T00:53:21;11.00;99.90
20700;DHT22;10511;51.232;9.420;2022-12-31T00:55:48;11.00;99.90
20700;DHT22;10511;51.232;9.420;2022-12-31T00:58:15;11.10;99.90
20700;DHT22;10511;51.232;9.420;2022-12-31T01:00:42;11.10;99.90
20700;DHT22;10511;51.232;9.420;2022-12-31T01:03:11;11.10;99.90
20700;DHT22;10511;51.232;9.420;2022-12-31T01:05:38;11.10;99.90
20700;DHT22;10511;51.232;9.420;2022-12-31T01:08:05;11.10;99.90
20700;DHT22;10511;51.232;9.420;2022-12-31T01:10:32;11.20;99.90
20700;DHT22;10511;51.232;9.420;2022-12-31T01:13:17;11.20;99.90
20700;DHT22;10511;51.232;9.420;2022-12-31T01:15:43;11.20;99.90
20700;DHT22;10511;51.232;9.420;2022-12-31T01:18:12;11.20;99.90
20700;DHT22;10511;51.232;9.420;2022-12-31T01:20:40;11.20;99.90
20700;DHT22;10511;51.232;9.420;2022-12-31T01:23:09;11.20;99.90
20700;DHT22;10511;51.232;9.420;2022-12-31T01:25:37;11.20;99.90
20700;DHT22;10511;51.232;9.420;2022-12-31T01:28:06;11.20;99.90
20700;DHT22;10511;51.232;9.420;2022-12-31T01:30:37;11.20;99.90
20700;DHT22;10511;51.232;9.420;2022-12-31T01:33:04;11.20;99.90
20700;DHT22;10511;51.232;9.420;2022-12-31T01:35:34;11.30;99.90
20700;DHT22;10511;51.232;9.420;2022-12-31T01:38:01;11.30;99.90
20700;DHT22;10511;51.232;9.420;2022-12-31T01:40:28;11.30;99.90
20700;DHT22;10511;51.232;9.420;2022-12-31T01:42:56;11.30;99.90
20700;DHT22;10511;51.232;9.420;2022-12-31T01:45:23;11.30;99.90
20700;DHT22;10511;51.232;9.420;2022-12-31T01:47:53;11.30;99.90
20700;DHT22;10511;51.232;9.420;2022-12-31T01:50:25;11.30;99.90
20700;DHT22;10511;51.232;9.420;2022-12-31T01:52:56;11.30;99.90
20700;DHT22;10511;51.232;9.420;2022-12-31T01:55:27;11.30;99.90
20700;DHT22;10511;51.232;9.420;2022-12-31T01:57:58;11.30;99.90
20700;DHT22;10511;51.232;9.420;2022-12-31T02:00:25;11.30;99.90
20700;DHT22;10511;51.232;9.420;2022-12-31T02:02:52;11.40;99.90
20700;DHT22;10511;51.232;9.420;2022-12-31T02:05:23;11.40;99.90
20700;DHT22;10511;51.232;9.420;2022-12-31T02:07:53;11.40;99.90
20700;DHT22;10511;51.232;9.420;2022-12-31T02:10:21;11.40;99.90
20700;DHT22;10511;51.232;9.420;2022-12-31T02:12:49;11.40;99.90
20700;DHT22;10511;51.232;9.420;2022-12-31T02:15:16;11.40;99.90
20700;DHT22;10511;51.232;9.420;2022-12-31T02:17:53;11.40;99.90
20700;DHT22;10511;51.232;9.420;2022-12-31T02:23:48;11.40;99.90
20700;DHT22;10511;51.232;9.420;2022-12-31T02:26:52;11.40;99.90
20700;DHT22;10511;51.232;9.420;2022-12-31T02:32:31;11.50;99.90
20700;DHT22;10511;51.232;9.420;2022-12-31T02:35:07;11.50;99.90
20700;DHT22;10511;51.232;9.420;2022-12-31T02:37:37;11.50;99.90
20700;DHT22;10511;51.232;9.420;2022-12-31T02:40:08;11.50;99.90
20700;DHT22;10511;51.232;9.420;2022-12-31T02:42:36;11.50;99.90
20700;DHT22;10511;51.232;9.420;2022-12-31T02:45:03;11.60;99.90
20700;DHT22;10511;51.232;9.420;2022-12-31T02:47:43;11.60;99.90
20700;DHT22;10511;51.232;9.420;2022-12-31T02:50:26;11.60;99.90
20700;DHT22;10511;51.232;9.420;2022-12-31T02:53:01;11.60;99.90
20700;DHT22;10511;51.232;9.420;2022-12-31T02:55:34;11.60;99.90
20700;DHT22;10511;51.232;9.420;2022-12-31T02:58:07;11.70;99.90
20700;DHT22;10511;51.232;9.420;2022-12-31T03:00:42;11.70;99.90
20700;DHT22;10511;51.232;9.420;2022-12-31T03:03:29;11.70;99.90
20700;DHT22;10511;51.232;9.420;2022-12-31T03:05:57;11.70;99.90
20700;DHT22;10511;51.232;9.420;2022-12-31T03:08:26;11.80;99.90
20700;DHT22;10511;51.232;9.420;2022-12-31T03:10:53;11.70;99.90
20700;DHT22;10511;51.232;9.420;2022-12-31T03:13:21;11.80;99.90
20700;DHT22;10511;51.232;9.420;2022-12-31T03:15:47;11.80;99.90
20700;DHT22;10511;51.232;9.420;2022-12-31T03:18:15;11.80;99.90
20700;DHT22;10511;51.232;9.420;2022-12-31T03:20:46;11.80;99.90
20700;DHT22;10511;51.232;9.420;2022-12-31T03:23:44;11.80;99.90
20700;DHT22;10511;51.232;9.420;2022-12-31T03:26:25;11.90;99.90
20700;DHT22;10511;51.232;9.420;2022-12-31T03:28:52;11.90;99.90
20700;DHT22;10511;51.232;9.420;2022-12-31T03:31:19;11.90;99.90
20700;DHT22;10511;51.232;9.420;2022-12-31T03:33:46;12.00;99.90
20700;DHT22;10511;51.232;9.420;2022-12-31T03:36:14;12.10;99.90
20700;DHT22;10511;51.232;9.420;2022-12-31T03:38:41;12.10;99.90
20700;DHT22;10511;51.232;9.420;2022-12-31T03:41:09;12.10;99.90
20700;DHT22;10511;51.232;9.420;2022-12-31T03:43:36;12.10;99.90
20700;DHT22;10511;51.232;9.420;2022-12-31T03:46:03;12.20;99.90
20700;DHT22;10511;51.232;9.420;2022-12-31T03:48:30;12.20;99.90
20700;DHT22;10511;51.232;9.420;2022-12-31T03:50:57;12.20;99.90
20700;DHT22;10511;51.232;9.420;2022-12-31T03:53:25;12.20;99.90
20700;DHT22;10511;51.232;9.420;2022-12-31T03:55:52;12.30;99.90
20700;DHT22;10511;51.232;9.420;2022-12-31T03:58:20;12.30;99.90
20700;DHT22;10511;51.232;9.420;2022-12-31T04:00:47;12.40;99.90
20700;DHT22;10511;51.232;9.420;2022-12-31T04:03:15;12.40;99.90
20700;DHT22;10511;51.232;9.420;2022-12-31T04:05:41;12.40;99.90
20700;DHT22;10511;51.232;9.420;2022-12-31T04:08:08;12.40;99.90
20700;DHT22;10511;51.232;9.420;2022-12-31T04:10:37;12.40;99.90
20700;DHT22;10511;51.232;9.420;2022-12-31T04:13:03;12.40;99.90
20700;DHT22;10511;51.232;9.420;2022-12-31T04:15:30;12.40;99.90
20700;DHT22;10511;51.232;9.420;2022-12-31T04:17:57;12.40;99.90
20700;DHT22;10511;51.232;9.420;2022-12-31T04:20:24;12.50;99.90
20700;DHT22;10511;51.232;9.420;2022-12-31T04:22:51;12.50;99.90
20700;DHT22;10511;51.232;9.420;2022-12-31T04:25:18;12.50;99.90
20700;DHT22;10511;51.232;9.420;2022-12-31T04:27:46;12.50;99.90
20700;DHT22;10511;51.232;9.420;2022-12-31T04:30:14;12.50;99.90
20700;DHT22;10511;51.232;9.420;2022-12-31T04:32:41;12.50;99.90
20700;DHT22;10511;51.232;9.420;2022-12-31T04:35:09;12.70;99.90
20700;DHT22;10511;51.232;9.420;2022-12-31T04:37:36;12.80;99.90
20700;DHT22;10511;51.232;9.420;2022-12-31T04:40:03;12.80;99.90
20700;DHT22;10511;51.232;9.420;2022-12-31T04:42:30;12.80;99.90
20700;DHT22;10511;51.232;9.420;2022-12-31T04:44:58;12.70;99.90
20700;DHT22;10511;51.232;9.420;2022-12-31T04:47:25;12.70;99.90
20700;DHT22;10511;51.232;9.420;2022-12-31T04:49:52;12.70;99.90
20700;DHT22;10511;51.232;9.420;2022-12-31T04:52:19;12.70;99.90
20700;DHT22;10511;51.232;9.420;2022-12-31T04:54:46;12.70;99.90
20700;DHT22;10511;51.232;9.420;2022-12-31T04:57:12;12.70;99.90
20700;DHT22;10511;51.232;9.420;2022-12-31T04:59:39;12.70;99.90
20700;DHT22;10511;51.232;9.420;2022-12-31T05:02:07;12.70;99.90
20700;DHT22;10511;51.232;9.420;2022-12-31T05:04:34;12.70;99.90
20700;DHT22;10511;51.232;9.420;2022-12-31T05:07:01;12.70;99.90
20700;DHT22;10511;51.232;9.420;2022-12-31T05:09:28;12.70;99.90
20700;DHT22;10511;51.232;9.420;2022-12-31T05:11:55;12.60;99.90
20700;DHT22;10511;51.232;9.420;2022-12-31T05:14:22;12.70;99.90
20700;DHT22;10511;51.232;9.420;2022-12-31T05:16:50;12.70;99.90
20700;DHT22;10511;51.232;9.420;2022-12-31T05:19:18;12.60;99.90
20700;DHT22;10511;51.232;9.420;2022-12-31T05:21:45;12.70;99.90
20700;DHT22;10511;51.232;9.420;2022-12-31T05:24:32;12.60;99.90
20700;DHT22;10511;51.232;9.420;2022-12-31T05:26:59;12.60;99.90
20700;DHT22;10511;51.232;9.420;2022-12-31T05:29:26;12.60;99.90
20700;DHT22;10511;51.232;9.420;2022-12-31T05:31:53;12.60;99.90
20700;DHT22;10511;51.232;9.420;2022-12-31T05:34:21;12.60;99.90
20700;DHT22;10511;51.232;9.420;2022-12-31T05:36:48;12.70;99.90
20700;DHT22;10511;51.232;9.420;2022-12-31T05:39:15;12.70;99.90
20700;DHT22;10511;51.232;9.420;2022-12-31T05:41:41;12.80;99.90
20700;DHT22;10511;51.232;9.420;2022-12-31T05:44:09;12.80;99.90
20700;DHT22;10511;51.232;9.420;2022-12-31T05:46:36;12.80;99.90
20700;DHT22;10511;51.232;9.420;2022-12-31T05:49:03;12.80;99.90
20700;DHT22;10511;51.232;9.420;2022-12-31T05:51:31;12.80;99.90
20700;DHT22;10511;51.232;9.420;2022-12-31T05:53:58;12.80;99.90
20700;DHT22;10511;51.232;9.420;2022-12-31T05:56:25;12.80;99.90
20700;DHT22;10511;51.232;9.420;2022-12-31T05:58:52;12.80;99.90
20700;DHT22;10511;51.232;9.420;2022-12-31T06:01:18;12.80;99.90
20700;DHT22;10511;51.232;9.420;2022-12-31T06:03:45;12.80;99.90
20700;DHT22;10511;51.232;9.420;2022-12-31T06:06:12;12.90;99.90
20700;DHT22;10511;51.232;9.420;2022-12-31T06:08:41;12.90;99.90
20700;DHT22;10511;51.232;9.420;2022-12-31T06:11:07;12.90;99.90
20700;DHT22;10511;51.232;9.420;2022-12-31T06:13:34;12.90;99.90
20700;DHT22;10511;51.232;9.420;2022-12-31T06:16:04;12.90;99.90
20700;DHT22;10511;51.232;9.420;2022-12-31T06:18:31;12.90;99.90
20700;DHT22;10511;51.232;9.420;2022-12-31T06:20:58;12.90;99.90
20700;DHT22;10511;51.232;9.420;2022-12-31T06:23:25;12.90;99.90
20700;DHT22;10511;51.232;9.420;2022-12-31T06:25:53;13.00;99.90
20700;DHT22;10511;51.232;9.420;2022-12-31T06:28:20;13.00;99.90
20700;DHT22;10511;51.232;9.420;2022-12-31T06:30:47;13.00;99.90
20700;DHT22;10511;51.232;9.420;2022-12-31T06:33:14;13.00;99.90
20700;DHT22;10511;51.232;9.420;2022-12-31T06:35:40;13.00;99.90
20700;DHT22;10511;51.232;9.420;2022-12-31T06:38:07;13.00;99.90
20700;DHT22;10511;51.232;9.420;2022-12-31T06:40:36;13.00;99.90
20700;DHT22;10511;51.232;9.420;2022-12-31T06:43:04;13.00;99.90
20700;DHT22;10511;51.232;9.420;2022-12-31T06:45:31;13.00;99.90
20700;DHT22;10511;51.232;9.420;2022-12-31T06:47:58;13.00;99.90
20700;DHT22;10511;51.232;9.420;2022-12-31T06:50:24;13.10;99.90
20700;DHT22;10511;51.232;9.420;2022-12-31T06:52:51;13.10;99.90
20700;DHT22;10511;51.232;9.420;2022-12-31T06:55:19;13.10;99.90
20700;DHT22;10511;51.232;9.420;2022-12-31T06:57:46;13.10;99.90
20700;DHT22;10511;51.232;9.420;2022-12-31T07:00:16;13.10;99.90
20700;DHT22;10511;51.232;9.420;2022-12-31T07:03:03;13.20;99.90
20700;DHT22;10511;51.232;9.420;2022-12-31T07:05:41;13.20;99.90
20700;DHT22;10511;51.232;9.420;2022-12-31T07:08:20;13.30;99.90
20700;DHT22;10511;51.232;9.420;2022-12-31T07:10:53;13.30;99.90
20700;DHT22;10511;51.232;9.420;2022-12-31T07:16:29;13.30;99.90
20700;DHT22;10511;51.232;9.420;2022-12-31T07:19:06;13.30;99.90
20700;DHT22;10511;51.232;9.420;2022-12-31T07:21:39;13.30;99.90
20700;DHT22;10511;51.232;9.420;2022-12-31T07:24:07;13.40;99.90
20700;DHT22;10511;51.232;9.420;2022-12-31T07:26:50;13.30;99.90
20700;DHT22;10511;51.232;9.420;2022-12-31T07:29:29;13.40;99.90
20700;DHT22;10511;51.232;9.420;2022-12-31T07:32:09;13.40;99.90
20700;DHT22;10511;51.232;9.420;2022-12-31T07:34:45;13.40;99.90
20700;DHT22;10511;51.232;9.420;2022-12-31T07:37:19;13.40;99.90
20700;DHT22;10511;51.232;9.420;2022-12-31T07:40:00;13.40;99.90
20700;DHT22;10511;51.232;9.420;2022-12-31T07:42:35;13.50;99.90
20700;DHT22;10511;51.232;9.420;2022-12-31T07:45:11;13.50;99.90
20700;DHT22;10511;51.232;9.420;2022-12-31T07:47:42;13.50;99.90
20700;DHT22;10511;51.232;9.420;2022-12-31T07:50:13;13.60;99.90
20700;DHT22;10511;51.232;9.420;2022-12-31T07:52:41;13.50;99.90
20700;DHT22;10511;51.232;9.420;2022-12-31T07:55:08;13.50;99.90
20700;DHT22;10511;51.232;9.420;2022-12-31T07:57:39;13.50;99.90
20700;DHT22;10511;51.232;9.420;2022-12-31T08:00:11;13.50;99.90
20700;DHT22;10511;51.232;9.420;2022-12-31T08:02:55;13.50;99.90
20700;DHT22;10511;51.232;9.420;2022-12-31T08:05:30;13.50;99.90
20700;DHT22;10511;51.232;9.420;2022-12-31T08:08:08;13.60;99.90
20700;DHT22;10511;51.232;9.420;2022-12-31T08:10:46;13.60;99.90
20700;DHT22;10511;51.232;9.420;2022-12-31T08:13:16;13.60;99.90
20700;DHT22;10511;51.232;9.420;2022-12-31T08:15:43;13.60;99.90
20700;DHT22;10511;51.232;9.420;2022-12-31T08:18:12;13.60;99.90
20700;DHT22;10511;51.232;9.420;2022-12-31T08:20:44;13.60;99.90
20700;DHT22;10511;51.232;9.420;2022-12-31T08:23:22;13.60;99.90
20700;DHT22;10511;51.232;9.420;2022-12-31T08:26:02;13.60;99.90
20700;DHT22;10511;51.232;9.420;2022-12-31T08:28:44;13.60;99.90
20700;DHT22;10511;51.232;9.420;2022-12-31T08:31:18;13.80;99.90
20700;DHT22;10511;51.232;9.420;2022-12-31T08:33:51;13.90;99.90
20700;DHT22;10511;51.232;9.420;2022-12-31T08:36:25;13.90;99.90
20700;DHT22;10511;51.232;9.420;2022-12-31T08:39:00;14.00;99.90
20700;DHT22;10511;51.232;9.420;2022-12-31T08:41:31;14.20;99.90
20700;DHT22;10511;51.232;9.420;2022-12-31T08:44:06;14.20;99.90
20700;DHT22;10511;51.232;9.420;2022-12-31T08:46:42;14.30;99.90
20700;DHT22;10511;51.232;9.420;2022-12-31T08:49:14;14.40;99.90
20700;DHT22;10511;51.232;9.420;2022-12-31T08:51:41;14.40;99.90
20700;DHT22;10511;51.232;9.420;2022-12-31T08:54:12;14.40;99.90
20700;DHT22;10511;51.232;9.420;2022-12-31T08:56:45;14.40;99.90
20700;DHT22;10511;51.232;9.420;2022-12-31T08:59:28;14.40;99.90
20700;DHT22;10511;51.232;9.420;2022-12-31T09:05:14;14.60;99.90
20700;DHT22;10511;51.232;9.420;2022-12-31T09:07:49;14.50;99.90
20700;DHT22;10511;51.232;9.420;2022-12-31T09:10:22;14.50;99.90
20700;DHT22;10511;51.232;9.420;2022-12-31T09:12:57;14.50;99.90
20700;DHT22;10511;51.232;9.420;2022-12-31T09:15:34;14.50;99.90
20700;DHT22;10511;51.232;9.420;2022-12-31T09:18:03;14.40;99.90
20700;DHT22;10511;51.232;9.420;2022-12-31T09:20:33;14.40;99.90
20700;DHT22;10511;51.232;9.420;2022-12-31T09:23:00;14.30;99.90
20700;DHT22;10511;51.232;9.420;2022-12-31T09:25:29;14.30;99.90
20700;DHT22;10511;51.232;9.420;2022-12-31T09:28:02;14.20;99.90
20700;DHT22;10511;51.232;9.420;2022-12-31T09:30:37;14.20;99.90
20700;DHT22;10511;51.232;9.420;2022-12-31T09:33:09;14.10;99.90
20700;DHT22;10511;51.232;9.420;2022-12-31T09:35:43;14.00;99.90
20700;DHT22;10511;51.232;9.420;2022-12-31T09:38:15;14.00;99.90
20700;DHT22;10511;51.232;9.420;2022-12-31T09:41:08;14.00;99.90
20700;DHT22;10511;51.232;9.420;2022-12-31T09:50:33;14.10;99.90
20700;DHT22;10511;51.232;9.420;2022-12-31T09:53:24;14.00;99.90
20700;DHT22;10511;51.232;9.420;2022-12-31T09:55:55;14.00;99.90
20700;DHT22;10511;51.232;9.420;2022-12-31T09:58:34;14.00;99.90
20700;DHT22;10511;51.232;9.420;2022-12-31T10:01:18;14.10;99.90
20700;DHT22;10511;51.232;9.420;2022-12-31T10:06:59;14.10;99.90
20700;DHT22;10511;51.232;9.420;2022-12-31T10:09:45;14.10;99.90
20700;DHT22;10511;51.232;9.420;2022-12-31T10:15:34;14.10;99.90
20700;DHT22;10511;51.232;9.420;2022-12-31T10:18:12;14.10;99.90
20700;DHT22;10511;51.232;9.420;2022-12-31T10:20:56;14.10;99.90
20700;DHT22;10511;51.232;9.420;2022-12-31T10:23:46;14.20;99.90
20700;DHT22;10511;51.232;9.420;2022-12-31T10:26:30;14.20;99.90
20700;DHT22;10511;51.232;9.420;2022-12-31T10:29:11;14.20;99.90
20700;DHT22;10511;51.232;9.420;2022-12-31T10:31:48;14.20;99.90
20700;DHT22;10511;51.232;9.420;2022-12-31T10:34:25;14.20;99.90
20700;DHT22;10511;51.232;9.420;2022-12-31T10:37:02;14.20;99.90
20700;DHT22;10511;51.232;9.420;2022-12-31T10:39:40;14.20;99.90
20700;DHT22;10511;51.232;9.420;2022-12-31T10:45:46;14.10;99.90
20700;DHT22;10511;51.232;9.420;2022-12-31T10:58:11;14.30;99.90
20700;DHT22;10511;51.232;9.420;2022-12-31T11:00:49;14.30;99.90
20700;DHT22;10511;51.232;9.420;2022-12-31T11:03:46;14.40;99.90
20700;DHT22;10511;51.232;9.420;2022-12-31T11:06:58;14.50;99.90
20700;DHT22;10511;51.232;9.420;2022-12-31T11:10:01;14.50;99.90
20700;DHT22;10511;51.232;9.420;2022-12-31T11:12:45;14.70;99.90
20700;DHT22;10511;51.232;9.420;2022-12-31T11:15:30;14.80;99.90
20700;DHT22;10511;51.232;9.420;2022-12-31T11:18:12;14.80;99.90
20700;DHT22;10511;51.232;9.420;2022-12-31T11:21:05;14.80;99.90
20700;DHT22;10511;51.232;9.420;2022-12-31T11:23:40;15.00;99.90
20700;DHT22;10511;51.232;9.420;2022-12-31T11:26:17;15.00;99.90
20700;DHT22;10511;51.232;9.420;2022-12-31T11:29:02;15.20;99.90
20700;DHT22;10511;51.232;9.420;2022-12-31T11:32:00;15.30;99.90
20700;DHT22;10511;51.232;9.420;2022-12-31T11:37:43;15.50;99.90
20700;DHT22;10511;51.232;9.420;2022-12-31T11:40:31;15.50;99.90
20700;DHT22;10511;51.232;9.420;2022-12-31T11:43:00;15.70;99.90
20700;DHT22;10511;51.232;9.420;2022-12-31T11:45:52;15.80;99.90
20700;DHT22;10511;51.232;9.420;2022-12-31T11:48:33;15.80;99.90
20700;DHT22;10511;51.232;9.420;2022-12-31T11:51:34;15.90;99.90
20700;DHT22;10511;51.232;9.420;2022-12-31T11:54:19;15.90;99.90
20700;DHT22;10511;51.232;9.420;2022-12-31T11:56:55;15.90;99.90
20700;DHT22;10511;51.232;9.420;2022-12-31T11:59:25;15.90;99.90
20700;DHT22;10511;51.232;9.420;2022-12-31T12:01:56;15.90;99.90
20700;DHT22;10511;51.232;9.420;2022-12-31T12:04:25;16.00;99.90
20700;DHT22;10511;51.232;9.420;2022-12-31T12:06:54;16.00;99.90
20700;DHT22;10511;51.232;9.420;2022-12-31T12:09:25;16.00;99.90
20700;DHT22;10511;51.232;9.420;2022-12-31T12:11:57;16.00;99.90
20700;DHT22;10511;51.232;9.420;2022-12-31T12:14:30;16.00;99.90
20700;DHT22;10511;51.232;9.420;2022-12-31T12:16:58;15.90;99.90
20700;DHT22;10511;51.232;9.420;2022-12-31T12:19:29;15.90;99.90
20700;DHT22;10511;51.232;9.420;2022-12-31T12:21:57;15.80;99.90
20700;DHT22;10511;51.232;9.420;2022-12-31T12:24:26;15.70;99.90
20700;DHT22;10511;51.232;9.420;2022-12-31T12:26:54;15.60;99.90
20700;DHT22;10511;51.232;9.420;2022-12-31T12:29:24;15.50;99.90
20700;DHT22;10511;51.232;9.420;2022-12-31T12:31:56;15.50;99.90
20700;DHT22;10511;51.232;9.420;2022-12-31T12:34:25;15.40;99.90
20700;DHT22;10511;51.232;9.420;2022-12-31T12:36:52;15.50;99.90
20700;DHT22;10511;51.232;9.420;2022-12-31T12:39:22;15.60;99.90
20700;DHT22;10511;51.232;9.420;2022-12-31T12:41:59;15.70;99.90
20700;DHT22;10511;51.232;9.420;2022-12-31T12:44:28;15.90;99.90
20700;DHT22;10511;51.232;9.420;2022-12-31T12:46:55;15.90;99.90
20700;DHT22;10511;51.232;9.420;2022-12-31T12:49:25;15.90;99.90
20700;DHT22;10511;51.232;9.420;2022-12-31T12:52:23;16.10;99.90
20700;DHT22;10511;51.232;9.420;2022-12-31T12:55:05;16.10;99.90
20700;DHT22;10511;51.232;9.420;2022-12-31T12:57:41;16.00;99.90
20700;DHT22;10511;51.232;9.420;2022-12-31T13:00:18;15.90;99.90
20700;DHT22;10511;51.232;9.420;2022-12-31T13:03:14;16.10;99.90
20700;DHT22;10511;51.232;9.420;2022-12-31T13:05:57;16.20;99.90
20700;DHT22;10511;51.232;9.420;2022-12-31T13:08:47;16.30;99.90
20700;DHT22;10511;51.232;9.420;2022-12-31T13:11:26;16.30;99.90
20700;DHT22;10511;51.232;9.420;2022-12-31T13:14:00;16.30;99.90
20700;DHT22;10511;51.232;9.420;2022-12-31T13:16:35;16.30;99.90
20700;DHT22;10511;51.232;9.420;2022-12-31T13:19:08;16.30;99.90
20700;DHT22;10511;51.232;9.420;2022-12-31T13:21:44;16.30;99.90
20700;DHT22;10511;51.232;9.420;2022-12-31T13:24:23;16.30;99.90
20700;DHT22;10511;51.232;9.420;2022-12-31T13:26:58;16.10;99.90
20700;DHT22;10511;51.232;9.420;2022-12-31T13:29:32;15.90;99.90
20700;DHT22;10511;51.232;9.420;2022-12-31T13:32:01;15.80;99.90
20700;DHT22;10511;51.232;9.420;2022-12-31T13:34:31;15.60;99.90
20700;DHT22;10511;51.232;9.420;2022-12-31T13:37:04;15.50;99.90
20700;DHT22;10511;51.232;9.420;2022-12-31T13:39:36;15.40;99.90
20700;DHT22;10511;51.232;9.420;2022-12-31T13:42:09;15.30;99.90
20700;DHT22;10511;51.232;9.420;2022-12-31T13:44:40;15.20;99.90
20700;DHT22;10511;51.232;9.420;2022-12-31T13:47:12;15.20;99.90
20700;DHT22;10511;51.232;9.420;2022-12-31T13:49:43;15.20;99.90
20700;DHT22;10511;51.232;9.420;2022-12-31T13:52:21;15.20;99.90
20700;DHT22;10511;51.232;9.420;2022-12-31T13:54:55;15.20;99.90
20700;DHT22;10511;51.232;9.420;2022-12-31T13:57:35;15.20;99.90
20700;DHT22;10511;51.232;9.420;2022-12-31T14:00:06;15.20;99.90
20700;DHT22;10511;51.232;9.420;2022-12-31T14:02:43;15.10;99.90
20700;DHT22;10511;51.232;9.420;2022-12-31T14:05:16;15.10;99.90
20700;DHT22;10511;51.232;9.420;2022-12-31T14:07:49;15.00;99.90
20700;DHT22;10511;51.232;9.420;2022-12-31T14:10:19;15.00;99.90
20700;DHT22;10511;51.232;9.420;2022-12-31T14:12:55;15.00;99.90
20700;DHT22;10511;51.232;9.420;2022-12-31T14:15:30;15.00;99.90
20700;DHT22;10511;51.232;9.420;2022-12-31T14:18:02;14.90;99.90
20700;DHT22;10511;51.232;9.420;2022-12-31T14:20:41;14.90;99.90
20700;DHT22;10511;51.232;9.420;2022-12-31T14:23:18;14.80;99.90
20700;DHT22;10511;51.232;9.420;2022-12-31T14:25:51;14.80;99.90
20700;DHT22;10511;51.232;9.420;2022-12-31T14:28:26;14.80;99.90
20700;DHT22;10511;51.232;9.420;2022-12-31T14:31:01;14.80;99.90
20700;DHT22;10511;51.232;9.420;2022-12-31T14:33:38;14.70;99.90
20700;DHT22;10511;51.232;9.420;2022-12-31T14:36:21;14.70;99.90
20700;DHT22;10511;51.232;9.420;2022-12-31T14:39:13;14.70;99.90
20700;DHT22;10511;51.232;9.420;2022-12-31T14:41:54;14.70;99.90
20700;DHT22;10511;51.232;9.420;2022-12-31T14:44:36;14.60;99.90
20700;DHT22;10511;51.232;9.420;2022-12-31T14:47:20;14.60;99.90
20700;DHT22;10511;51.232;9.420;2022-12-31T14:49:57;14.60;99.90
20700;DHT22;10511;51.232;9.420;2022-12-31T14:52:29;14.60;99.90
20700;DHT22;10511;51.232;9.420;2022-12-31T14:54:59;14.50;99.90
20700;DHT22;10511;51.232;9.420;2022-12-31T14:57:34;14.50;99.90
20700;DHT22;10511;51.232;9.420;2022-12-31T15:00:26;14.50;99.90
20700;DHT22;10511;51.232;9.420;2022-12-31T15:02:54;14.50;99.90
20700;DHT22;10511;51.232;9.420;2022-12-31T15:05:24;14.50;99.90
20700;DHT22;10511;51.232;9.420;2022-12-31T15:08:20;14.50;99.90
20700;DHT22;10511;51.232;9.420;2022-12-31T15:11:13;14.50;99.90
20700;DHT22;10511;51.232;9.420;2022-12-31T15:14:01;14.50;99.90
20700;DHT22;10511;51.232;9.420;2022-12-31T15:16:42;14.50;99.90
20700;DHT22;10511;51.232;9.420;2022-12-31T15:20:03;14.40;99.90
20700;DHT22;10511;51.232;9.420;2022-12-31T15:22:37;14.50;99.90
20700;DHT22;10511;51.232;9.420;2022-12-31T15:25:20;14.50;99.90
20700;DHT22;10511;51.232;9.420;2022-12-31T15:27:47;14.40;99.90
20700;DHT22;10511;51.232;9.420;2022-12-31T15:30:34;14.40;99.90
20700;DHT22;10511;51.232;9.420;2022-12-31T15:33:05;14.40;99.90
20700;DHT22;10511;51.232;9.420;2022-12-31T15:35:45;14.40;99.90
20700;DHT22;10511;51.232;9.420;2022-12-31T15:38:31;14.40;99.90
20700;DHT22;10511;51.232;9.420;2022-12-31T15:40:59;14.40;99.90
20700;DHT22;10511;51.232;9.420;2022-12-31T15:43:36;14.40;99.90
20700;DHT22;10511;51.232;9.420;2022-12-31T15:46:12;14.30;99.90
20700;DHT22;10511;51.232;9.420;2022-12-31T15:48:44;14.40;99.90
20700;DHT22;10511;51.232;9.420;2022-12-31T15:51:16;14.30;99.90
20700;DHT22;10511;51.232;9.420;2022-12-31T15:53:46;14.40;99.90
20700;DHT22;10511;51.232;9.420;2022-12-31T15:56:20;14.40;99.90
20700;DHT22;10511;51.232;9.420;2022-12-31T15:58:52;14.40;99.90
20700;DHT22;10511;51.232;9.420;2022-12-31T16:01:21;14.40;99.90
20700;DHT22;10511;51.232;9.420;2022-12-31T16:03:55;14.40;99.90
20700;DHT22;10511;51.232;9.420;2022-12-31T16:06:22;14.40;99.90
20700;DHT22;10511;51.232;9.420;2022-12-31T16:08:51;14.40;99.90
20700;DHT22;10511;51.232;9.420;2022-12-31T16:11:20;14.40;99.90
20700;DHT22;10511;51.232;9.420;2022-12-31T16:13:49;14.40;99.90
20700;DHT22;10511;51.232;9.420;2022-12-31T16:16:20;14.30;99.90
20700;DHT22;10511;51.232;9.420;2022-12-31T16:18:47;14.40;99.90
20700;DHT22;10511;51.232;9.420;2022-12-31T16:21:28;14.40;99.90
20700;DHT22;10511;51.232;9.420;2022-12-31T16:23:56;14.30;99.90
20700;DHT22;10511;51.232;9.420;2022-12-31T16:26:27;14.30;99.90
20700;DHT22;10511;51.232;9.420;2022-12-31T16:28:55;14.30;99.90
20700;DHT22;10511;51.232;9.420;2022-12-31T16:31:26;14.30;99.90
20700;DHT22;10511;51.232;9.420;2022-12-31T16:34:05;14.30;99.90
20700;DHT22;10511;51.232;9.420;2022-12-31T16:36:33;14.30;99.90
20700;DHT22;10511;51.232;9.420;2022-12-31T16:39:22;14.30;99.90
20700;DHT22;10511;51.232;9.420;2022-12-31T16:41:51;14.30;99.90
20700;DHT22;10511;51.232;9.420;2022-12-31T16:44:25;14.30;99.90
20700;DHT22;10511;51.232;9.420;2022-12-31T16:46:54;14.30;99.90
20700;DHT22;10511;51.232;9.420;2022-12-31T16:49:23;14.30;99.90